This is the latest recevied weather packets stored in our database for station/object OK1PMP-6. If no packets are shown the sender has not sent any weather packets the latest 10 day(s).
| Time | Temp. | Humidity | Pressure | Rain* | Wind** | Luminosity | Snow |
|---|---|---|---|---|---|---|---|
| 1777365465 | 15.56° C | 37% | 1025.3 hPa | 0 mm | - | 595 W/m² | - |
| 1777364559 | 15° C | 40% | 1025.6 hPa | 0 mm | - | 569 W/m² | - |
| 1777363660 | 13.89° C | 40% | 1025.2 hPa | 0 mm | - | 515 W/m² | - |
| 1777362759 | 13.33° C | 42% | 1025.4 hPa | 0 mm | - | 494 W/m² | - |
| 1777361859 | 12.78° C | 46% | 1025.3 hPa | 0 mm | - | 509 W/m² | - |
| 1777360960 | 11.67° C | 49% | 1025.3 hPa | 0 mm | - | 469 W/m² | - |
| 1777360060 | 11.11° C | 52% | 1025.5 hPa | 0 mm | - | 429 W/m² | - |
| 1777358260 | 8.89° C | 54% | 1025.3 hPa | 0 mm | - | 350 W/m² | - |
| 1777357362 | 7.78° C | 59% | 1025.2 hPa | 0 mm | - | 299 W/m² | - |
| 1777356461 | 6.67° C | 66% | 1025.3 hPa | 0 mm | - | 257 W/m² | - |
| 1777354659 | 3.89° C | 74% | 1025.3 hPa | 0 mm | - | 163 W/m² | - |
| 1777353761 | 2.78° C | 76% | 1025.3 hPa | 0 mm | - | 92 W/m² | - |
| 1777352866 | 1.67° C | 79% | 1025 hPa | 0 mm | - | 77 W/m² | - |
| 1777351959 | 0.56° C | 79% | 1024.9 hPa | 0 mm | - | 70 W/m² | - |
| 1777351061 | 0° C | 79% | 1024.9 hPa | 0 mm | - | 37 W/m² | - |
| 1777350160 | -0.56° C | 77% | 1024.8 hPa | 0 mm | - | 27 W/m² | - |
| 1777349260 | -0.56° C | 76% | 1024.8 hPa | 0 mm | - | 18 W/m² | - |
| 1777348359 | -0.56° C | 76% | 1024.7 hPa | 0 mm | - | 7 W/m² | - |
| 1777347459 | 0° C | 75% | 1024.7 hPa | 0 mm | - | 2 W/m² | - |
| 1777346562 | 0° C | 75% | 1024.5 hPa | 0 mm | - | 0 W/m² | - |
| 1777345657 | 0° C | 74% | 1024.8 hPa | 0 mm | - | 0 W/m² | - |
| 1777344738 | 0.56° C | 72% | 1024.5 hPa | 0 mm | - | 0 W/m² | - |
| 1777343838 | 1.11° C | 71% | 1024.7 hPa | 0 mm | - | 0 W/m² | - |
| 1777342938 | 1.67° C | 68% | 1024.6 hPa | 0 mm | - | 0 W/m² | - |
| 1777342039 | 3.33° C | 67% | 1024.4 hPa | 0 mm | - | 0 W/m² | - |
* Rain latest hour (hover to see other rain measurements)
** Current wind speed in m/s (hover to see current wind gust speed)